sensor_id;sensor_type;location;lat;lon;timestamp;P1;durP1;ratioP1;P2;durP2;ratioP2
30874;SDS011;17581;43.222;27.924;2024-03-23T00:56:02;44.10;;;24.42;;
30874;SDS011;17581;43.222;27.924;2024-03-23T00:58:28;43.75;;;24.50;;
30874;SDS011;17581;43.222;27.924;2024-03-23T01:00:54;42.83;;;23.60;;
30874;SDS011;17581;43.222;27.924;2024-03-23T01:03:19;35.40;;;22.55;;
30874;SDS011;17581;43.222;27.924;2024-03-23T01:05:45;39.65;;;22.70;;
30874;SDS011;17581;43.222;27.924;2024-03-23T01:08:10;38.50;;;23.45;;
30874;SDS011;17581;43.222;27.924;2024-03-23T01:10:37;37.47;;;23.23;;
30874;SDS011;17581;43.222;27.924;2024-03-23T01:13:03;39.58;;;21.85;;
30874;SDS011;17581;43.222;27.924;2024-03-23T01:15:29;41.03;;;21.48;;
30874;SDS011;17581;43.222;27.924;2024-03-23T01:17:55;36.83;;;22.38;;
30874;SDS011;17581;43.222;27.924;2024-03-23T01:20:20;38.95;;;22.00;;
30874;SDS011;17581;43.222;27.924;2024-03-23T01:22:45;32.55;;;21.92;;
30874;SDS011;17581;43.222;27.924;2024-03-23T01:25:11;38.47;;;22.08;;
30874;SDS011;17581;43.222;27.924;2024-03-23T01:27:36;39.03;;;22.35;;
30874;SDS011;17581;43.222;27.924;2024-03-23T01:30:02;38.38;;;23.05;;
30874;SDS011;17581;43.222;27.924;2024-03-23T01:32:28;43.78;;;22.95;;
30874;SDS011;17581;43.222;27.924;2024-03-23T01:34:54;45.83;;;27.45;;
30874;SDS011;17581;43.222;27.924;2024-03-23T01:37:19;48.78;;;28.55;;
30874;SDS011;17581;43.222;27.924;2024-03-23T01:39:45;61.92;;;30.02;;
30874;SDS011;17581;43.222;27.924;2024-03-23T01:42:10;50.15;;;30.60;;
30874;SDS011;17581;43.222;27.924;2024-03-23T01:44:36;47.00;;;28.20;;
30874;SDS011;17581;43.222;27.924;2024-03-23T01:47:01;44.78;;;25.60;;
30874;SDS011;17581;43.222;27.924;2024-03-23T01:49:26;39.40;;;25.23;;
30874;SDS011;17581;43.222;27.924;2024-03-23T01:51:52;45.17;;;25.15;;
30874;SDS011;17581;43.222;27.924;2024-03-23T01:54:18;44.75;;;25.33;;
30874;SDS011;17581;43.222;27.924;2024-03-23T01:56:44;45.78;;;23.73;;
30874;SDS011;17581;43.222;27.924;2024-03-23T01:59:10;50.88;;;24.02;;
30874;SDS011;17581;43.222;27.924;2024-03-23T02:01:35;43.75;;;22.58;;
30874;SDS011;17581;43.222;27.924;2024-03-23T02:04:01;47.95;;;22.05;;
30874;SDS011;17581;43.222;27.924;2024-03-23T02:06:27;35.30;;;20.02;;
30874;SDS011;17581;43.222;27.924;2024-03-23T02:08:53;40.72;;;21.02;;
30874;SDS011;17581;43.222;27.924;2024-03-23T02:11:21;44.15;;;20.25;;
30874;SDS011;17581;43.222;27.924;2024-03-23T02:13:47;30.50;;;17.55;;
30874;SDS011;17581;43.222;27.924;2024-03-23T02:16:13;39.47;;;19.35;;
30874;SDS011;17581;43.222;27.924;2024-03-23T02:18:38;23.40;;;16.48;;
30874;SDS011;17581;43.222;27.924;2024-03-23T02:21:03;39.83;;;18.45;;
30874;SDS011;17581;43.222;27.924;2024-03-23T02:23:29;30.67;;;17.38;;
30874;SDS011;17581;43.222;27.924;2024-03-23T02:25:54;28.23;;;16.35;;
30874;SDS011;17581;43.222;27.924;2024-03-23T02:28:20;29.30;;;17.60;;
30874;SDS011;17581;43.222;27.924;2024-03-23T02:30:47;33.00;;;17.80;;
30874;SDS011;17581;43.222;27.924;2024-03-23T02:33:13;40.42;;;17.58;;
30874;SDS011;17581;43.222;27.924;2024-03-23T02:35:39;27.15;;;15.88;;
30874;SDS011;17581;43.222;27.924;2024-03-23T02:38:04;54.10;;;19.08;;
30874;SDS011;17581;43.222;27.924;2024-03-23T02:40:29;29.30;;;16.67;;
30874;SDS011;17581;43.222;27.924;2024-03-23T02:42:55;32.03;;;17.50;;
30874;SDS011;17581;43.222;27.924;2024-03-23T02:45:21;47.47;;;19.90;;
30874;SDS011;17581;43.222;27.924;2024-03-23T02:47:46;39.20;;;17.70;;
30874;SDS011;17581;43.222;27.924;2024-03-23T02:50:13;30.98;;;17.80;;
30874;SDS011;17581;43.222;27.924;2024-03-23T02:52:40;27.67;;;16.70;;
30874;SDS011;17581;43.222;27.924;2024-03-23T02:55:05;29.02;;;17.25;;
30874;SDS011;17581;43.222;27.924;2024-03-23T02:57:32;33.63;;;18.50;;
30874;SDS011;17581;43.222;27.924;2024-03-23T02:59:57;35.50;;;17.90;;
30874;SDS011;17581;43.222;27.924;2024-03-23T03:02:23;34.80;;;19.50;;
30874;SDS011;17581;43.222;27.924;2024-03-23T03:04:48;34.13;;;18.13;;
30874;SDS011;17581;43.222;27.924;2024-03-23T03:07:14;25.95;;;17.17;;
30874;SDS011;17581;43.222;27.924;2024-03-23T03:09:39;30.90;;;17.63;;
30874;SDS011;17581;43.222;27.924;2024-03-23T03:12:05;32.25;;;17.92;;
30874;SDS011;17581;43.222;27.924;2024-03-23T03:14:31;35.22;;;17.05;;
30874;SDS011;17581;43.222;27.924;2024-03-23T03:16:57;41.45;;;17.92;;
30874;SDS011;17581;43.222;27.924;2024-03-23T03:19:22;27.33;;;16.38;;
30874;SDS011;17581;43.222;27.924;2024-03-23T03:21:48;43.30;;;19.05;;
30874;SDS011;17581;43.222;27.924;2024-03-23T03:24:14;33.95;;;17.40;;
30874;SDS011;17581;43.222;27.924;2024-03-23T03:26:40;48.15;;;18.67;;
30874;SDS011;17581;43.222;27.924;2024-03-23T03:29:06;56.33;;;17.60;;
30874;SDS011;17581;43.222;27.924;2024-03-23T03:31:31;81.10;;;21.10;;
30874;SDS011;17581;43.222;27.924;2024-03-23T03:33:57;65.38;;;19.98;;
30874;SDS011;17581;43.222;27.924;2024-03-23T03:36:22;95.18;;;20.23;;
30874;SDS011;17581;43.222;27.924;2024-03-23T03:38:48;74.85;;;22.35;;
30874;SDS011;17581;43.222;27.924;2024-03-23T03:41:13;42.95;;;18.02;;
30874;SDS011;17581;43.222;27.924;2024-03-23T03:43:39;36.10;;;17.52;;
30874;SDS011;17581;43.222;27.924;2024-03-23T03:46:04;39.00;;;16.10;;
30874;SDS011;17581;43.222;27.924;2024-03-23T03:48:29;46.28;;;16.67;;
30874;SDS011;17581;43.222;27.924;2024-03-23T03:50:55;32.05;;;14.00;;
30874;SDS011;17581;43.222;27.924;2024-03-23T03:53:20;32.60;;;18.08;;
30874;SDS011;17581;43.222;27.924;2024-03-23T03:55:46;38.78;;;21.77;;
30874;SDS011;17581;43.222;27.924;2024-03-23T03:58:12;46.30;;;23.02;;
30874;SDS011;17581;43.222;27.924;2024-03-23T04:00:37;38.10;;;21.08;;
30874;SDS011;17581;43.222;27.924;2024-03-23T04:03:11;42.53;;;19.05;;
30874;SDS011;17581;43.222;27.924;2024-03-23T04:05:37;45.45;;;23.38;;
30874;SDS011;17581;43.222;27.924;2024-03-23T04:08:03;44.47;;;26.17;;
30874;SDS011;17581;43.222;27.924;2024-03-23T04:10:29;45.58;;;27.65;;
30874;SDS011;17581;43.222;27.924;2024-03-23T04:12:55;51.05;;;27.42;;
30874;SDS011;17581;43.222;27.924;2024-03-23T04:15:21;52.75;;;26.67;;
30874;SDS011;17581;43.222;27.924;2024-03-23T04:17:47;43.15;;;25.55;;
30874;SDS011;17581;43.222;27.924;2024-03-23T04:20:12;63.28;;;26.80;;
30874;SDS011;17581;43.222;27.924;2024-03-23T04:22:41;59.55;;;27.25;;
30874;SDS011;17581;43.222;27.924;2024-03-23T04:25:07;50.42;;;27.85;;
30874;SDS011;17581;43.222;27.924;2024-03-23T04:27:33;54.95;;;27.17;;
30874;SDS011;17581;43.222;27.924;2024-03-23T04:29:58;42.47;;;26.23;;
30874;SDS011;17581;43.222;27.924;2024-03-23T04:35:23;51.63;;;26.95;;
30874;SDS011;17581;43.222;27.924;2024-03-23T04:37:50;51.55;;;27.73;;
30874;SDS011;17581;43.222;27.924;2024-03-23T04:40:17;60.85;;;27.08;;
30874;SDS011;17581;43.222;27.924;2024-03-23T04:42:43;54.42;;;27.08;;
30874;SDS011;17581;43.222;27.924;2024-03-23T04:45:08;43.85;;;23.75;;
30874;SDS011;17581;43.222;27.924;2024-03-23T04:47:35;55.10;;;26.58;;
30874;SDS011;17581;43.222;27.924;2024-03-23T04:50:02;51.60;;;26.50;;
30874;SDS011;17581;43.222;27.924;2024-03-23T04:52:29;64.07;;;27.80;;
30874;SDS011;17581;43.222;27.924;2024-03-23T04:54:55;51.28;;;23.30;;
30874;SDS011;17581;43.222;27.924;2024-03-23T04:57:21;70.85;;;24.70;;
30874;SDS011;17581;43.222;27.924;2024-03-23T04:59:47;54.30;;;25.80;;
30874;SDS011;17581;43.222;27.924;2024-03-23T05:02:13;55.55;;;24.55;;
30874;SDS011;17581;43.222;27.924;2024-03-23T05:04:39;60.63;;;25.70;;
30874;SDS011;17581;43.222;27.924;2024-03-23T05:07:05;57.30;;;26.23;;
30874;SDS011;17581;43.222;27.924;2024-03-23T05:09:31;79.07;;;25.85;;
30874;SDS011;17581;43.222;27.924;2024-03-23T05:11:57;61.65;;;24.90;;
30874;SDS011;17581;43.222;27.924;2024-03-23T05:14:23;51.00;;;24.98;;
30874;SDS011;17581;43.222;27.924;2024-03-23T05:16:48;61.28;;;24.70;;
30874;SDS011;17581;43.222;27.924;2024-03-23T05:19:14;55.22;;;25.67;;
30874;SDS011;17581;43.222;27.924;2024-03-23T05:21:39;55.45;;;25.85;;
30874;SDS011;17581;43.222;27.924;2024-03-23T05:24:05;51.42;;;27.00;;
30874;SDS011;17581;43.222;27.924;2024-03-23T05:26:30;74.65;;;25.05;;
30874;SDS011;17581;43.222;27.924;2024-03-23T05:28:56;62.90;;;25.40;;
30874;SDS011;17581;43.222;27.924;2024-03-23T05:31:25;55.72;;;25.85;;
30874;SDS011;17581;43.222;27.924;2024-03-23T05:33:51;62.20;;;27.55;;
30874;SDS011;17581;43.222;27.924;2024-03-23T05:36:16;80.68;;;32.30;;
30874;SDS011;17581;43.222;27.924;2024-03-23T05:38:42;69.30;;;23.73;;
30874;SDS011;17581;43.222;27.924;2024-03-23T05:41:07;174.75;;;36.55;;
30874;SDS011;17581;43.222;27.924;2024-03-23T05:43:34;92.70;;;27.65;;
30874;SDS011;17581;43.222;27.924;2024-03-23T05:46:00;67.25;;;23.30;;
30874;SDS011;17581;43.222;27.924;2024-03-23T05:48:27;40.10;;;21.15;;
30874;SDS011;17581;43.222;27.924;2024-03-23T05:50:55;97.28;;;24.80;;
30874;SDS011;17581;43.222;27.924;2024-03-23T05:53:20;36.72;;;18.58;;
30874;SDS011;17581;43.222;27.924;2024-03-23T05:55:46;30.95;;;17.00;;
30874;SDS011;17581;43.222;27.924;2024-03-23T05:58:15;36.13;;;18.48;;
30874;SDS011;17581;43.222;27.924;2024-03-23T06:00:42;30.52;;;15.88;;
30874;SDS011;17581;43.222;27.924;2024-03-23T06:03:08;41.45;;;18.35;;
30874;SDS011;17581;43.222;27.924;2024-03-23T06:05:35;41.65;;;18.85;;
30874;SDS011;17581;43.222;27.924;2024-03-23T06:08:03;35.17;;;19.17;;
30874;SDS011;17581;43.222;27.924;2024-03-23T06:10:31;57.63;;;20.10;;
30874;SDS011;17581;43.222;27.924;2024-03-23T06:12:56;36.65;;;17.33;;
30874;SDS011;17581;43.222;27.924;2024-03-23T06:15:23;42.00;;;17.42;;
30874;SDS011;17581;43.222;27.924;2024-03-23T06:17:49;42.95;;;16.55;;
30874;SDS011;17581;43.222;27.924;2024-03-23T06:20:14;30.95;;;19.15;;
30874;SDS011;17581;43.222;27.924;2024-03-23T06:22:40;32.88;;;15.15;;
30874;SDS011;17581;43.222;27.924;2024-03-23T06:25:06;29.73;;;14.35;;
30874;SDS011;17581;43.222;27.924;2024-03-23T06:27:32;32.15;;;17.55;;
30874;SDS011;17581;43.222;27.924;2024-03-23T06:29:58;26.15;;;16.15;;
30874;SDS011;17581;43.222;27.924;2024-03-23T06:32:28;40.92;;;16.63;;
30874;SDS011;17581;43.222;27.924;2024-03-23T06:34:57;32.13;;;15.98;;
30874;SDS011;17581;43.222;27.924;2024-03-23T06:37:23;30.40;;;17.98;;
30874;SDS011;17581;43.222;27.924;2024-03-23T06:39:48;36.22;;;17.65;;
30874;SDS011;17581;43.222;27.924;2024-03-23T06:42:13;40.30;;;18.27;;
30874;SDS011;17581;43.222;27.924;2024-03-23T06:44:39;46.70;;;17.60;;
30874;SDS011;17581;43.222;27.924;2024-03-23T06:47:05;36.95;;;19.58;;
30874;SDS011;17581;43.222;27.924;2024-03-23T06:49:30;41.15;;;18.98;;
30874;SDS011;17581;43.222;27.924;2024-03-23T06:51:56;46.25;;;20.83;;
30874;SDS011;17581;43.222;27.924;2024-03-23T06:54:21;39.40;;;21.45;;
30874;SDS011;17581;43.222;27.924;2024-03-23T06:56:47;42.97;;;23.85;;
30874;SDS011;17581;43.222;27.924;2024-03-23T06:59:13;50.67;;;26.13;;
30874;SDS011;17581;43.222;27.924;2024-03-23T07:01:38;47.28;;;26.13;;
30874;SDS011;17581;43.222;27.924;2024-03-23T07:04:04;60.85;;;25.58;;
30874;SDS011;17581;43.222;27.924;2024-03-23T07:06:30;111.78;;;27.92;;
30874;SDS011;17581;43.222;27.924;2024-03-23T07:08:56;57.92;;;26.30;;
30874;SDS011;17581;43.222;27.924;2024-03-23T07:11:22;45.95;;;23.50;;
30874;SDS011;17581;43.222;27.924;2024-03-23T07:13:51;45.20;;;20.88;;
30874;SDS011;17581;43.222;27.924;2024-03-23T07:16:19;40.35;;;21.90;;
30874;SDS011;17581;43.222;27.924;2024-03-23T07:18:46;54.20;;;23.58;;
30874;SDS011;17581;43.222;27.924;2024-03-23T07:21:12;63.63;;;24.98;;
30874;SDS011;17581;43.222;27.924;2024-03-23T07:23:38;58.92;;;26.00;;
30874;SDS011;17581;43.222;27.924;2024-03-23T07:26:07;29.13;;;14.48;;
30874;SDS011;17581;43.222;27.924;2024-03-23T07:28:33;33.63;;;16.30;;
30874;SDS011;17581;43.222;27.924;2024-03-23T07:31:06;43.58;;;19.00;;
30874;SDS011;17581;43.222;27.924;2024-03-23T07:33:36;50.78;;;17.27;;
30874;SDS011;17581;43.222;27.924;2024-03-23T07:36:03;51.78;;;19.52;;
30874;SDS011;17581;43.222;27.924;2024-03-23T07:38:29;23.63;;;14.05;;
30874;SDS011;17581;43.222;27.924;2024-03-23T07:41:07;32.08;;;15.45;;
30874;SDS011;17581;43.222;27.924;2024-03-23T07:43:34;28.40;;;12.18;;
30874;SDS011;17581;43.222;27.924;2024-03-23T07:46:02;47.13;;;13.23;;
30874;SDS011;17581;43.222;27.924;2024-03-23T07:48:48;29.45;;;12.48;;
30874;SDS011;17581;43.222;27.924;2024-03-23T07:51:17;14.50;;;9.85;;
30874;SDS011;17581;43.222;27.924;2024-03-23T07:53:45;20.05;;;10.98;;
30874;SDS011;17581;43.222;27.924;2024-03-23T07:58:44;18.42;;;10.35;;
30874;SDS011;17581;43.222;27.924;2024-03-23T08:01:15;17.80;;;10.80;;
30874;SDS011;17581;43.222;27.924;2024-03-23T08:03:43;19.35;;;10.77;;
30874;SDS011;17581;43.222;27.924;2024-03-23T08:06:13;23.10;;;12.80;;
30874;SDS011;17581;43.222;27.924;2024-03-23T08:08:40;16.75;;;9.68;;
30874;SDS011;17581;43.222;27.924;2024-03-23T08:11:06;18.23;;;9.77;;
30874;SDS011;17581;43.222;27.924;2024-03-23T08:13:34;21.52;;;11.40;;
30874;SDS011;17581;43.222;27.924;2024-03-23T08:16:04;30.30;;;11.10;;
30874;SDS011;17581;43.222;27.924;2024-03-23T08:18:30;21.63;;;10.20;;
30874;SDS011;17581;43.222;27.924;2024-03-23T08:20:59;27.23;;;10.35;;
30874;SDS011;17581;43.222;27.924;2024-03-23T08:23:27;15.70;;;11.07;;
30874;SDS011;17581;43.222;27.924;2024-03-23T08:25:57;14.60;;;10.60;;
30874;SDS011;17581;43.222;27.924;2024-03-23T08:28:26;20.95;;;11.55;;
30874;SDS011;17581;43.222;27.924;2024-03-23T08:30:52;24.70;;;13.20;;
30874;SDS011;17581;43.222;27.924;2024-03-23T08:33:18;24.90;;;12.32;;
30874;SDS011;17581;43.222;27.924;2024-03-23T08:35:53;27.60;;;12.98;;
30874;SDS011;17581;43.222;27.924;2024-03-23T08:38:26;23.67;;;13.57;;
30874;SDS011;17581;43.222;27.924;2024-03-23T08:40:59;17.45;;;11.63;;
30874;SDS011;17581;43.222;27.924;2024-03-23T08:43:33;21.48;;;12.50;;
30874;SDS011;17581;43.222;27.924;2024-03-23T08:46:08;54.75;;;16.27;;
30874;SDS011;17581;43.222;27.924;2024-03-23T08:48:35;19.73;;;11.95;;
30874;SDS011;17581;43.222;27.924;2024-03-23T08:51:07;37.40;;;12.90;;
30874;SDS011;17581;43.222;27.924;2024-03-23T08:53:35;24.83;;;12.70;;
30874;SDS011;17581;43.222;27.924;2024-03-23T08:56:10;20.08;;;12.68;;
30874;SDS011;17581;43.222;27.924;2024-03-23T08:58:36;21.35;;;13.55;;
30874;SDS011;17581;43.222;27.924;2024-03-23T09:01:04;16.48;;;11.93;;
30874;SDS011;17581;43.222;27.924;2024-03-23T09:03:30;24.88;;;12.70;;
30874;SDS011;17581;43.222;27.924;2024-03-23T09:05:56;45.03;;;15.10;;
30874;SDS011;17581;43.222;27.924;2024-03-23T09:08:23;17.75;;;13.18;;
30874;SDS011;17581;43.222;27.924;2024-03-23T09:10:48;17.05;;;11.73;;
30874;SDS011;17581;43.222;27.924;2024-03-23T09:13:14;25.70;;;12.40;;
30874;SDS011;17581;43.222;27.924;2024-03-23T09:15:48;23.10;;;12.85;;
30874;SDS011;17581;43.222;27.924;2024-03-23T09:18:17;50.88;;;20.70;;
30874;SDS011;17581;43.222;27.924;2024-03-23T09:20:43;22.92;;;16.52;;
30874;SDS011;17581;43.222;27.924;2024-03-23T09:23:08;26.33;;;15.05;;
30874;SDS011;17581;43.222;27.924;2024-03-23T09:25:37;29.15;;;16.10;;
30874;SDS011;17581;43.222;27.924;2024-03-23T09:28:03;26.20;;;15.75;;
30874;SDS011;17581;43.222;27.924;2024-03-23T09:30:30;26.88;;;16.38;;
30874;SDS011;17581;43.222;27.924;2024-03-23T09:32:55;30.90;;;16.02;;
30874;SDS011;17581;43.222;27.924;2024-03-23T09:35:20;35.83;;;16.10;;
30874;SDS011;17581;43.222;27.924;2024-03-23T09:37:46;25.17;;;13.10;;
30874;SDS011;17581;43.222;27.924;2024-03-23T09:40:11;24.25;;;12.45;;
30874;SDS011;17581;43.222;27.924;2024-03-23T09:42:37;34.30;;;12.98;;
30874;SDS011;17581;43.222;27.924;2024-03-23T09:45:06;22.77;;;10.93;;
30874;SDS011;17581;43.222;27.924;2024-03-23T09:47:42;20.63;;;11.38;;
30874;SDS011;17581;43.222;27.924;2024-03-23T09:50:09;57.33;;;14.55;;
30874;SDS011;17581;43.222;27.924;2024-03-23T09:52:34;31.55;;;10.80;;
30874;SDS011;17581;43.222;27.924;2024-03-23T09:55:00;31.67;;;9.52;;
30874;SDS011;17581;43.222;27.924;2024-03-23T09:57:25;10.43;;;8.55;;
30874;SDS011;17581;43.222;27.924;2024-03-23T09:59:51;18.27;;;9.13;;
30874;SDS011;17581;43.222;27.924;2024-03-23T10:02:19;38.55;;;10.35;;
30874;SDS011;17581;43.222;27.924;2024-03-23T10:04:46;17.27;;;8.75;;
30874;SDS011;17581;43.222;27.924;2024-03-23T10:07:20;25.70;;;10.52;;
30874;SDS011;17581;43.222;27.924;2024-03-23T10:09:50;18.52;;;8.60;;
30874;SDS011;17581;43.222;27.924;2024-03-23T10:12:20;29.52;;;9.80;;
30874;SDS011;17581;43.222;27.924;2024-03-23T10:14:46;28.30;;;9.13;;
30874;SDS011;17581;43.222;27.924;2024-03-23T10:19:51;17.20;;;9.32;;
30874;SDS011;17581;43.222;27.924;2024-03-23T10:22:21;18.52;;;10.88;;
30874;SDS011;17581;43.222;27.924;2024-03-23T10:24:51;26.35;;;11.23;;
30874;SDS011;17581;43.222;27.924;2024-03-23T10:27:24;18.40;;;8.32;;
30874;SDS011;17581;43.222;27.924;2024-03-23T10:29:50;28.58;;;9.55;;
30874;SDS011;17581;43.222;27.924;2024-03-23T10:32:17;17.98;;;8.30;;
30874;SDS011;17581;43.222;27.924;2024-03-23T10:34:43;28.40;;;10.85;;
30874;SDS011;17581;43.222;27.924;2024-03-23T10:37:10;15.57;;;8.68;;
30874;SDS011;17581;43.222;27.924;2024-03-23T10:39:39;15.93;;;7.88;;
30874;SDS011;17581;43.222;27.924;2024-03-23T10:42:06;16.65;;;9.30;;
30874;SDS011;17581;43.222;27.924;2024-03-23T10:44:33;15.48;;;8.63;;
30874;SDS011;17581;43.222;27.924;2024-03-23T10:46:59;31.05;;;8.95;;
30874;SDS011;17581;43.222;27.924;2024-03-23T10:49:30;32.10;;;8.48;;
30874;SDS011;17581;43.222;27.924;2024-03-23T10:51:58;13.50;;;6.97;;
30874;SDS011;17581;43.222;27.924;2024-03-23T10:54:24;26.05;;;9.02;;
30874;SDS011;17581;43.222;27.924;2024-03-23T10:56:51;28.48;;;8.23;;
30874;SDS011;17581;43.222;27.924;2024-03-23T10:59:41;11.45;;;7.88;;
30874;SDS011;17581;43.222;27.924;2024-03-23T11:02:08;18.15;;;8.48;;
30874;SDS011;17581;43.222;27.924;2024-03-23T11:04:44;13.85;;;9.10;;
30874;SDS011;17581;43.222;27.924;2024-03-23T11:10:01;19.52;;;9.27;;
30874;SDS011;17581;43.222;27.924;2024-03-23T11:12:28;16.55;;;8.35;;
30874;SDS011;17581;43.222;27.924;2024-03-23T11:19:59;31.08;;;9.13;;
30874;SDS011;17581;43.222;27.924;2024-03-23T11:27:45;26.10;;;10.85;;
30874;SDS011;17581;43.222;27.924;2024-03-23T11:30:12;36.40;;;11.57;;
30874;SDS011;17581;43.222;27.924;2024-03-23T11:32:38;25.52;;;9.35;;
30874;SDS011;17581;43.222;27.924;2024-03-23T11:35:04;34.30;;;11.55;;
30874;SDS011;17581;43.222;27.924;2024-03-23T11:37:30;27.33;;;9.10;;
30874;SDS011;17581;43.222;27.924;2024-03-23T11:39:56;15.00;;;8.05;;
30874;SDS011;17581;43.222;27.924;2024-03-23T11:42:21;21.45;;;10.27;;
30874;SDS011;17581;43.222;27.924;2024-03-23T11:44:47;13.68;;;8.57;;
30874;SDS011;17581;43.222;27.924;2024-03-23T11:47:12;18.85;;;8.93;;
30874;SDS011;17581;43.222;27.924;2024-03-23T11:49:38;11.43;;;7.88;;
30874;SDS011;17581;43.222;27.924;2024-03-23T11:52:06;15.70;;;8.38;;
30874;SDS011;17581;43.222;27.924;2024-03-23T11:54:32;26.25;;;10.02;;
30874;SDS011;17581;43.222;27.924;2024-03-23T11:57:02;16.88;;;8.32;;
30874;SDS011;17581;43.222;27.924;2024-03-23T11:59:33;20.70;;;9.15;;
30874;SDS011;17581;43.222;27.924;2024-03-23T12:01:59;20.90;;;8.93;;
30874;SDS011;17581;43.222;27.924;2024-03-23T12:04:27;15.48;;;8.77;;
30874;SDS011;17581;43.222;27.924;2024-03-23T12:09:38;18.20;;;9.40;;
30874;SDS011;17581;43.222;27.924;2024-03-23T12:12:17;33.85;;;10.57;;
30874;SDS011;17581;43.222;27.924;2024-03-23T12:15:00;25.17;;;8.20;;
30874;SDS011;17581;43.222;27.924;2024-03-23T12:17:27;18.02;;;8.38;;
30874;SDS011;17581;43.222;27.924;2024-03-23T12:19:53;65.32;;;12.60;;
30874;SDS011;17581;43.222;27.924;2024-03-23T12:22:20;31.55;;;9.35;;
30874;SDS011;17581;43.222;27.924;2024-03-23T12:24:46;10.38;;;7.47;;
30874;SDS011;17581;43.222;27.924;2024-03-23T12:27:11;9.77;;;7.35;;
30874;SDS011;17581;43.222;27.924;2024-03-23T12:29:37;13.90;;;7.63;;
30874;SDS011;17581;43.222;27.924;2024-03-23T12:32:04;13.40;;;8.25;;
30874;SDS011;17581;43.222;27.924;2024-03-23T12:34:30;22.42;;;8.95;;
30874;SDS011;17581;43.222;27.924;2024-03-23T12:36:55;13.43;;;9.32;;
30874;SDS011;17581;43.222;27.924;2024-03-23T12:39:21;15.80;;;9.00;;
30874;SDS011;17581;43.222;27.924;2024-03-23T12:41:47;22.90;;;9.73;;
30874;SDS011;17581;43.222;27.924;2024-03-23T12:44:13;17.35;;;11.00;;
30874;SDS011;17581;43.222;27.924;2024-03-23T12:46:40;33.97;;;13.88;;
30874;SDS011;17581;43.222;27.924;2024-03-23T12:49:06;19.98;;;12.45;;
30874;SDS011;17581;43.222;27.924;2024-03-23T12:51:32;27.70;;;12.45;;
30874;SDS011;17581;43.222;27.924;2024-03-23T12:53:58;30.05;;;13.80;;
30874;SDS011;17581;43.222;27.924;2024-03-23T12:56:23;35.20;;;13.90;;
30874;SDS011;17581;43.222;27.924;2024-03-23T12:58:49;17.88;;;13.73;;
30874;SDS011;17581;43.222;27.924;2024-03-23T13:01:16;35.28;;;15.02;;
30874;SDS011;17581;43.222;27.924;2024-03-23T13:03:45;38.00;;;13.40;;
30874;SDS011;17581;43.222;27.924;2024-03-23T13:06:15;27.45;;;13.05;;
30874;SDS011;17581;43.222;27.924;2024-03-23T13:08:44;35.63;;;16.48;;
30874;SDS011;17581;43.222;27.924;2024-03-23T13:11:10;28.25;;;14.73;;
30874;SDS011;17581;43.222;27.924;2024-03-23T13:13:36;22.95;;;13.25;;
30874;SDS011;17581;43.222;27.924;2024-03-23T13:16:02;30.33;;;15.20;;
30874;SDS011;17581;43.222;27.924;2024-03-23T13:18:29;29.08;;;15.15;;
30874;SDS011;17581;43.222;27.924;2024-03-23T13:20:55;32.10;;;15.30;;
30874;SDS011;17581;43.222;27.924;2024-03-23T13:23:20;21.73;;;14.88;;
30874;SDS011;17581;43.222;27.924;2024-03-23T13:25:53;29.50;;;13.70;;
30874;SDS011;17581;43.222;27.924;2024-03-23T13:28:21;20.25;;;12.15;;
30874;SDS011;17581;43.222;27.924;2024-03-23T13:30:56;52.78;;;15.32;;
30874;SDS011;17581;43.222;27.924;2024-03-23T13:33:29;26.43;;;13.30;;
30874;SDS011;17581;43.222;27.924;2024-03-23T13:35:55;25.45;;;13.43;;
30874;SDS011;17581;43.222;27.924;2024-03-23T13:38:24;25.88;;;12.32;;
30874;SDS011;17581;43.222;27.924;2024-03-23T13:43:16;33.22;;;12.77;;
30874;SDS011;17581;43.222;27.924;2024-03-23T13:45:41;19.73;;;10.32;;
30874;SDS011;17581;43.222;27.924;2024-03-23T13:48:07;16.83;;;10.98;;
30874;SDS011;17581;43.222;27.924;2024-03-23T13:50:33;39.05;;;11.52;;
30874;SDS011;17581;43.222;27.924;2024-03-23T13:52:58;18.40;;;10.32;;
30874;SDS011;17581;43.222;27.924;2024-03-23T13:55:24;34.28;;;10.48;;
30874;SDS011;17581;43.222;27.924;2024-03-23T13:57:49;16.30;;;10.68;;
30874;SDS011;17581;43.222;27.924;2024-03-23T14:00:16;25.33;;;10.63;;
30874;SDS011;17581;43.222;27.924;2024-03-23T14:02:43;24.50;;;11.18;;
30874;SDS011;17581;43.222;27.924;2024-03-23T14:05:09;25.83;;;10.18;;
30874;SDS011;17581;43.222;27.924;2024-03-23T14:07:34;25.55;;;11.35;;
30874;SDS011;17581;43.222;27.924;2024-03-23T14:10:03;20.35;;;9.32;;
30874;SDS011;17581;43.222;27.924;2024-03-23T14:12:31;19.50;;;11.32;;
30874;SDS011;17581;43.222;27.924;2024-03-23T14:17:27;33.83;;;10.95;;
30874;SDS011;17581;43.222;27.924;2024-03-23T14:19:53;14.77;;;8.38;;
30874;SDS011;17581;43.222;27.924;2024-03-23T14:22:18;18.63;;;9.93;;
30874;SDS011;17581;43.222;27.924;2024-03-23T14:24:46;58.33;;;10.82;;
30874;SDS011;17581;43.222;27.924;2024-03-23T14:27:12;39.67;;;10.02;;
30874;SDS011;17581;43.222;27.924;2024-03-23T14:29:37;15.95;;;8.73;;
30874;SDS011;17581;43.222;27.924;2024-03-23T14:32:06;31.73;;;9.95;;
30874;SDS011;17581;43.222;27.924;2024-03-23T14:34:32;13.68;;;8.52;;
30874;SDS011;17581;43.222;27.924;2024-03-23T14:36:57;20.38;;;9.05;;
30874;SDS011;17581;43.222;27.924;2024-03-23T14:39:23;18.13;;;7.97;;
30874;SDS011;17581;43.222;27.924;2024-03-23T14:41:51;19.15;;;8.77;;
30874;SDS011;17581;43.222;27.924;2024-03-23T14:44:17;11.63;;;8.10;;
30874;SDS011;17581;43.222;27.924;2024-03-23T14:46:45;35.60;;;10.77;;
30874;SDS011;17581;43.222;27.924;2024-03-23T14:49:16;23.95;;;9.27;;
30874;SDS011;17581;43.222;27.924;2024-03-23T14:51:41;26.70;;;11.90;;
30874;SDS011;17581;43.222;27.924;2024-03-23T14:54:07;23.55;;;13.00;;
30874;SDS011;17581;43.222;27.924;2024-03-23T14:56:32;19.13;;;9.40;;
30874;SDS011;17581;43.222;27.924;2024-03-23T14:58:59;21.80;;;8.57;;
30874;SDS011;17581;43.222;27.924;2024-03-23T15:01:25;23.85;;;8.40;;
30874;SDS011;17581;43.222;27.924;2024-03-23T15:03:50;12.63;;;7.55;;
30874;SDS011;17581;43.222;27.924;2024-03-23T15:06:18;14.52;;;8.70;;
30874;SDS011;17581;43.222;27.924;2024-03-23T15:08:46;37.95;;;10.25;;
30874;SDS011;17581;43.222;27.924;2024-03-23T15:11:11;19.10;;;7.72;;
30874;SDS011;17581;43.222;27.924;2024-03-23T15:13:37;19.45;;;7.55;;
30874;SDS011;17581;43.222;27.924;2024-03-23T15:16:03;24.00;;;8.75;;
30874;SDS011;17581;43.222;27.924;2024-03-23T15:18:30;35.45;;;9.77;;
30874;SDS011;17581;43.222;27.924;2024-03-23T15:21:01;17.90;;;8.30;;
30874;SDS011;17581;43.222;27.924;2024-03-23T15:23:32;25.92;;;8.70;;
30874;SDS011;17581;43.222;27.924;2024-03-23T15:25:57;35.58;;;17.90;;
30874;SDS011;17581;43.222;27.924;2024-03-23T15:28:24;45.05;;;12.88;;
30874;SDS011;17581;43.222;27.924;2024-03-23T15:30:53;19.67;;;8.48;;
30874;SDS011;17581;43.222;27.924;2024-03-23T15:33:18;32.70;;;9.50;;